Terminal Aerodrome Forecast
Issued by NWS

Home | Current Version | Previous Version | Text Only | Print | Product List | Glossary On
Versions: 1 2 3 4 5 6 7 8 9 10 11 12 13 14 15 16 17 18 19 20 21 22 23 24 25 26 27 28 29 30 31 32 33 34 35 36 37 38
000
FTUS43 KDDC 150101 AAA
TAFHYS
TAF AMD
KHYS 150101Z 1501/1524 12010KT 5SM -TSRA OVC012CB
     FM150500 VRB06KT 4SM BR BKN015
     FM150900 33022G28KT P6SM -SHRA BKN012
     FM151500 32022G28KT P6SM OVC025=

USA.gov is the U.S. government's official web portal to all federal, state and local government web resources and services.